Time,TemperatureF,DewpointF,PressureIn,WindDirection,WindDirectionDegrees,WindSpeedMPH,WindSpeedGustMPH,Humidity,HourlyPrecipIn,Conditions,Clouds,dailyrainin,SoftwareType,DateUTC
2013-07-29 00:01:00,56.9,54.6,29.97,SW,229,0.0,5.0,92,0.00,,,0.00,Wunderground v.1.15,2013-07-29 04:01:00,
2013-07-29 00:02:00,56.9,54.6,29.97,SW,229,0.0,5.0,92,0.00,,,0.00,Wunderground v.1.15,2013-07-29 04:02:00,
2013-07-29 00:03:00,56.9,54.6,29.97,SW,229,0.0,5.0,92,0.00,,,0.00,Wunderground v.1.15,2013-07-29 04:03:00,
2013-07-29 00:05:00,56.9,54.6,29.97,SW,229,0.0,5.0,92,0.00,,,0.00,Wunderground v.1.15,2013-07-29 04:05:00,
2013-07-29 00:09:00,56.9,54.3,29.97,SW,229,0.0,5.0,91,0.00,,,0.00,Wunderground v.1.15,2013-07-29 04:09:00,
2013-07-29 00:15:00,56.9,54.3,29.97,SW,229,0.0,5.0,91,0.00,,,0.00,Wunderground v.1.15,2013-07-29 04:15:00,
2013-07-29 00:20:00,56.9,54.6,29.98,SW,229,0.0,5.0,92,0.00,,,0.00,Wunderground v.1.15,2013-07-29 04:20:00,
2013-07-29 00:25:00,56.8,54.2,29.98,SW,229,0.0,5.0,91,0.00,,,0.00,Wunderground v.1.15,2013-07-29 04:25:00,
2013-07-29 00:30:00,56.7,54.1,29.98,SW,229,0.0,5.0,91,0.00,,,0.00,Wunderground v.1.15,2013-07-29 04:30:00,
2013-07-29 00:35:00,56.5,53.9,29.98,SSE,156,0.0,5.0,91,0.00,,,0.00,Wunderground v.1.15,2013-07-29 04:35:00,
2013-07-29 00:41:00,56.3,54.0,29.97,SSE,156,0.0,5.0,92,0.00,,,0.00,Wunderground v.1.15,2013-07-29 04:41:00,
2013-07-29 00:46:00,56.1,53.8,29.97,SSE,156,0.0,5.0,92,0.00,,,0.00,Wunderground v.1.15,2013-07-29 04:46:00,
2013-07-29 00:51:00,56.1,53.8,29.97,SSE,156,0.0,5.0,92,0.00,,,0.00,Wunderground v.1.15,2013-07-29 04:51:00,
2013-07-29 00:56:00,56.2,53.9,29.98,ESE,110,0.0,5.0,92,0.00,,,0.00,Wunderground v.1.15,2013-07-29 04:56:00,
2013-07-29 01:01:00,56.3,54.0,29.98,WSW,243,0.0,5.0,92,0.00,,,0.00,Wunderground v.1.15,2013-07-29 05:01:00,
2013-07-29 01:07:00,56.5,53.9,29.98,WSW,240,0.0,5.0,91,0.00,,,0.00,Wunderground v.1.15,2013-07-29 05:07:00,
2013-07-29 01:12:00,56.6,54.0,29.98,WSW,240,0.0,5.0,91,0.00,,,0.00,Wunderground v.1.15,2013-07-29 05:12:00,
2013-07-29 01:17:00,56.5,53.6,29.97,SSW,193,0.0,5.0,90,0.00,,,0.00,Wunderground v.1.15,2013-07-29 05:17:00,
2013-07-29 01:22:00,56.5,53.6,29.97,SSW,193,0.0,5.0,90,0.00,,,0.00,Wunderground v.1.15,2013-07-29 05:22:00,
2013-07-29 01:27:00,56.3,53.4,29.98,South,191,0.0,5.0,90,0.00,,,0.00,Wunderground v.1.15,2013-07-29 05:27:00,
2013-07-29 01:33:00,56.1,53.2,29.98,South,191,0.0,5.0,90,0.00,,,0.00,Wunderground v.1.15,2013-07-29 05:33:00,
2013-07-29 01:38:00,56.0,53.4,29.97,South,191,0.0,5.0,91,0.00,,,0.00,Wunderground v.1.15,2013-07-29 05:38:00,
2013-07-29 01:43:00,55.9,53.3,29.97,South,191,0.0,5.0,91,0.00,,,0.00,Wunderground v.1.15,2013-07-29 05:43:00,
2013-07-29 01:48:00,55.9,53.6,29.97,South,191,0.0,5.0,92,0.00,,,0.00,Wunderground v.1.15,2013-07-29 05:48:00,
2013-07-29 01:53:00,56.0,53.7,29.97,South,191,0.0,5.0,92,0.00,,,0.00,Wunderground v.1.15,2013-07-29 05:53:00,
2013-07-29 01:59:00,56.1,53.8,29.98,South,187,0.0,5.0,92,0.00,,,0.00,Wunderground v.1.15,2013-07-29 05:59:00,
2013-07-29 02:04:00,56.1,53.8,29.98,South,188,0.0,5.0,92,0.00,,,0.00,Wunderground v.1.15,2013-07-29 06:04:00,
2013-07-29 02:09:00,56.1,53.8,29.98,South,188,0.0,5.0,92,0.00,,,0.00,Wunderground v.1.15,2013-07-29 06:09:00,
2013-07-29 02:14:00,56.1,53.8,29.98,South,189,0.0,5.0,92,0.00,,,0.00,Wunderground v.1.15,2013-07-29 06:14:00,
2013-07-29 02:19:00,56.1,53.8,29.98,South,188,0.0,5.0,92,0.00,,,0.00,Wunderground v.1.15,2013-07-29 06:19:00,
2013-07-29 02:25:00,56.1,53.8,29.98,South,189,0.0,5.0,92,0.00,,,0.00,Wunderground v.1.15,2013-07-29 06:25:00,
2013-07-29 02:30:00,56.1,53.8,29.98,South,188,0.0,5.0,92,0.00,,,0.00,Wunderground v.1.15,2013-07-29 06:30:00,
2013-07-29 02:35:00,56.1,53.8,29.98,South,188,0.0,5.0,92,0.00,,,0.00,Wunderground v.1.15,2013-07-29 06:35:00,
2013-07-29 02:40:00,56.0,54.0,29.97,South,188,0.0,5.0,93,0.00,,,0.00,Wunderground v.1.15,2013-07-29 06:40:00,
2013-07-29 02:45:00,56.0,54.0,29.98,SE,140,0.0,5.0,93,0.00,,,0.00,Wunderground v.1.15,2013-07-29 06:45:00,
2013-07-29 02:51:00,55.9,53.9,29.98,SE,138,0.0,5.0,93,0.00,,,0.00,Wunderground v.1.15,2013-07-29 06:51:00,
2013-07-29 02:56:00,55.7,53.7,29.98,SE,138,0.0,5.0,93,0.00,,,0.00,Wunderground v.1.15,2013-07-29 06:56:00,
2013-07-29 03:01:00,55.7,53.7,29.98,SE,140,0.0,5.0,93,0.00,,,0.00,Wunderground v.1.15,2013-07-29 07:01:00,
2013-07-29 03:06:00,55.5,53.5,29.98,SE,140,0.0,5.0,93,0.00,,,0.00,Wunderground v.1.15,2013-07-29 07:06:00,
2013-07-29 03:11:00,55.3,53.3,29.98,SE,138,0.0,5.0,93,0.00,,,0.00,Wunderground v.1.15,2013-07-29 07:11:00,
2013-07-29 03:17:00,55.3,53.3,29.97,SE,138,0.0,5.0,93,0.00,,,0.00,Wunderground v.1.15,2013-07-29 07:17:00,
2013-07-29 03:22:00,55.2,53.2,29.97,SE,138,0.0,5.0,93,0.00,,,0.00,Wunderground v.1.15,2013-07-29 07:22:00,
2013-07-29 03:27:00,55.1,53.1,29.98,SE,138,0.0,5.0,93,0.00,,,0.00,Wunderground v.1.15,2013-07-29 07:27:00,
2013-07-29 03:32:00,55.1,53.1,29.98,SE,139,0.0,5.0,93,0.00,,,0.00,Wunderground v.1.15,2013-07-29 07:32:00,
2013-07-29 03:37:00,54.9,53.2,29.98,SE,140,0.0,5.0,94,0.00,,,0.00,Wunderground v.1.15,2013-07-29 07:37:00,
2013-07-29 03:43:00,54.8,53.1,29.98,SE,140,0.0,5.0,94,0.00,,,0.00,Wunderground v.1.15,2013-07-29 07:43:00,
2013-07-29 03:48:00,54.7,53.0,29.98,SE,140,0.0,5.0,94,0.00,,,0.00,Wunderground v.1.15,2013-07-29 07:48:00,
2013-07-29 03:53:00,54.7,53.0,29.97,SE,141,0.0,5.0,94,0.00,,,0.00,Wunderground v.1.15,2013-07-29 07:53:00,
2013-07-29 03:58:00,54.7,53.3,29.98,SE,139,0.0,5.0,95,0.00,,,0.00,Wunderground v.1.15,2013-07-29 07:58:00,
2013-07-29 04:03:00,54.7,53.3,29.98,SE,140,0.0,5.0,95,0.00,,,0.00,Wunderground v.1.15,2013-07-29 08:03:00,
2013-07-29 04:09:00,54.7,53.3,29.98,SE,139,0.0,5.0,95,0.00,,,0.00,Wunderground v.1.15,2013-07-29 08:09:00,
2013-07-29 04:14:00,54.7,53.3,29.98,SE,140,0.0,5.0,95,0.00,,,0.00,Wunderground v.1.15,2013-07-29 08:14:00,
2013-07-29 04:19:00,54.7,53.3,29.98,SE,140,0.0,5.0,95,0.00,,,0.00,Wunderground v.1.15,2013-07-29 08:19:00,
2013-07-29 04:24:00,54.7,53.3,29.99,SE,140,0.0,5.0,95,0.00,,,0.00,Wunderground v.1.15,2013-07-29 08:24:00,
2013-07-29 04:29:00,54.7,53.3,29.98,SE,139,0.0,5.0,95,0.00,,,0.00,Wunderground v.1.15,2013-07-29 08:29:00,
2013-07-29 04:34:00,54.8,53.4,29.99,SE,140,0.0,5.0,95,0.00,,,0.00,Wunderground v.1.15,2013-07-29 08:34:00,
2013-07-29 04:39:00,54.8,53.4,29.99,SE,139,0.0,5.0,95,0.00,,,0.00,Wunderground v.1.15,2013-07-29 08:39:00,
2013-07-29 04:44:00,54.8,53.4,29.99,SSE,150,0.0,5.0,95,0.00,,,0.00,Wunderground v.1.15,2013-07-29 08:44:00,
2013-07-29 04:49:00,54.8,53.4,29.99,SSE,150,0.0,5.0,95,0.00,,,0.00,Wunderground v.1.15,2013-07-29 08:49:00,
2013-07-29 04:54:00,54.8,53.4,29.99,SSE,150,0.0,5.0,95,0.00,,,0.00,Wunderground v.1.15,2013-07-29 08:54:00,
2013-07-29 04:59:00,54.8,53.4,29.99,SSE,151,0.0,5.0,95,0.00,,,0.00,Wunderground v.1.15,2013-07-29 08:59:00,
2013-07-29 05:04:00,54.9,53.5,29.99,SSE,150,0.0,5.0,95,0.00,,,0.00,Wunderground v.1.15,2013-07-29 09:04:00,
2013-07-29 05:10:00,54.8,53.4,29.99,SSE,150,0.0,5.0,95,0.00,,,0.00,Wunderground v.1.15,2013-07-29 09:10:00,
2013-07-29 05:15:00,54.9,53.5,29.99,SSE,150,0.0,5.0,95,0.00,,,0.00,Wunderground v.1.15,2013-07-29 09:15:00,
2013-07-29 05:20:00,54.9,53.5,29.99,SSE,163,0.0,5.0,95,0.00,,,0.00,Wunderground v.1.15,2013-07-29 09:20:00,
2013-07-29 05:25:00,54.9,53.5,29.99,SSW,194,0.0,5.0,95,0.00,,,0.00,Wunderground v.1.15,2013-07-29 09:25:00,
2013-07-29 05:30:00,55.0,53.9,29.99,SSW,194,0.0,5.0,96,0.00,,,0.00,Wunderground v.1.15,2013-07-29 09:30:00,
2013-07-29 05:36:00,55.0,53.6,30.00,SSW,194,0.0,5.0,95,0.00,,,0.00,Wunderground v.1.15,2013-07-29 09:36:00,
2013-07-29 05:41:00,55.1,53.7,30.00,SSW,194,0.0,5.0,95,0.00,,,0.00,Wunderground v.1.15,2013-07-29 09:41:00,
2013-07-29 05:46:00,55.0,53.6,30.00,SSE,153,0.0,5.0,95,0.00,,,0.00,Wunderground v.1.15,2013-07-29 09:46:00,
2013-07-29 05:51:00,55.1,53.7,30.00,SSE,157,0.0,5.0,95,0.00,,,0.00,Wunderground v.1.15,2013-07-29 09:51:00,
2013-07-29 05:56:00,55.1,53.7,30.01,SSW,199,0.0,5.0,95,0.00,,,0.00,Wunderground v.1.15,2013-07-29 09:56:00,
2013-07-29 06:02:00,55.1,53.7,30.01,SSW,200,0.0,5.0,95,0.00,,,0.00,Wunderground v.1.15,2013-07-29 10:02:00,
2013-07-29 06:07:00,55.2,53.5,30.01,SSW,197,0.0,5.0,94,0.00,,,0.00,Wunderground v.1.15,2013-07-29 10:07:00,
2013-07-29 06:12:00,55.2,53.5,30.01,SSW,197,0.0,5.0,94,0.00,,,0.00,Wunderground v.1.15,2013-07-29 10:12:00,
2013-07-29 06:18:00,55.2,53.5,30.01,SSW,197,0.0,5.0,94,0.00,,,0.00,Wunderground v.1.15,2013-07-29 10:18:00,
2013-07-29 06:24:00,55.2,53.5,30.01,SSW,197,0.0,5.0,94,0.00,,,0.00,Wunderground v.1.15,2013-07-29 10:24:00,
2013-07-29 06:29:00,55.2,53.5,30.01,SSW,198,0.0,5.0,94,0.00,,,0.00,Wunderground v.1.15,2013-07-29 10:29:00,
2013-07-29 06:35:00,55.1,53.4,30.01,SSW,196,0.0,5.0,94,0.00,,,0.00,Wunderground v.1.15,2013-07-29 10:35:00,
2013-07-29 06:41:00,55.1,53.4,30.01,SSW,197,0.0,5.0,94,0.00,,,0.00,Wunderground v.1.15,2013-07-29 10:41:00,
2013-07-29 06:46:00,55.1,53.4,30.01,SSW,197,0.0,5.0,94,0.00,,,0.00,Wunderground v.1.15,2013-07-29 10:46:00,
2013-07-29 06:51:00,55.1,53.7,30.01,SSE,165,0.0,5.0,95,0.00,,,0.00,Wunderground v.1.15,2013-07-29 10:51:00,
2013-07-29 06:56:00,55.1,53.7,30.01,SSE,165,0.0,5.0,95,0.00,,,0.00,Wunderground v.1.15,2013-07-29 10:56:00,
2013-07-29 07:01:00,55.1,53.7,30.01,SSE,166,0.0,5.0,95,0.00,,,0.00,Wunderground v.1.15,2013-07-29 11:01:00,
2013-07-29 07:07:00,55.1,53.4,30.01,SW,222,0.0,5.0,94,0.00,,,0.00,Wunderground v.1.15,2013-07-29 11:07:00,
2013-07-29 07:12:00,55.1,53.4,30.02,SW,222,0.0,5.0,94,0.00,,,0.00,Wunderground v.1.15,2013-07-29 11:12:00,
2013-07-29 07:17:00,55.2,53.5,30.02,SW,218,0.0,5.0,94,0.00,,,0.00,Wunderground v.1.15,2013-07-29 11:17:00,
2013-07-29 07:23:00,55.4,53.7,30.02,SW,222,0.0,5.0,94,0.00,,,0.00,Wunderground v.1.15,2013-07-29 11:23:00,
2013-07-29 07:28:00,55.5,53.5,30.02,SW,233,0.0,5.0,93,0.00,,,0.00,Wunderground v.1.15,2013-07-29 11:28:00,
2013-07-29 07:33:00,55.6,53.6,30.02,WSW,240,0.0,5.0,93,0.00,,,0.00,Wunderground v.1.15,2013-07-29 11:33:00,
2013-07-29 07:39:00,55.8,53.5,30.02,SW,227,0.0,5.0,92,0.00,,,0.00,Wunderground v.1.15,2013-07-29 11:39:00,
2013-07-29 07:44:00,55.9,53.3,30.02,SW,226,0.0,5.0,91,0.00,,,0.00,Wunderground v.1.15,2013-07-29 11:44:00,
2013-07-29 07:49:00,56.1,53.5,30.02,SW,219,0.0,5.0,91,0.00,,,0.00,Wunderground v.1.15,2013-07-29 11:49:00,
2013-07-29 07:54:00,56.3,53.7,30.02,SW,225,0.0,5.0,91,0.00,,,0.00,Wunderground v.1.15,2013-07-29 11:54:00,
2013-07-29 08:00:00,56.5,53.6,30.02,SW,222,0.0,5.0,90,0.00,,,0.00,Wunderground v.1.15,2013-07-29 12:00:00,
2013-07-29 08:05:00,56.7,53.5,30.03,SW,232,0.0,5.0,89,0.00,,,0.00,Wunderground v.1.15,2013-07-29 12:05:00,
2013-07-29 08:10:00,56.9,54.0,30.03,SW,217,0.0,5.0,90,0.00,,,0.00,Wunderground v.1.15,2013-07-29 12:10:00,
2013-07-29 08:17:00,57.1,53.6,30.03,SW,231,0.0,5.0,88,0.00,,,0.00,Wunderground v.1.15,2013-07-29 12:17:00,
2013-07-29 08:22:00,57.3,53.8,30.03,SW,224,0.0,5.0,88,0.00,,,0.00,Wunderground v.1.15,2013-07-29 12:22:00,
2013-07-29 08:28:00,57.4,53.9,30.03,SSW,211,0.0,5.0,88,0.00,,,0.00,Wunderground v.1.15,2013-07-29 12:28:00,
2013-07-29 08:33:00,57.5,54.0,30.03,SSW,211,0.0,5.0,88,0.00,,,0.00,Wunderground v.1.15,2013-07-29 12:33:00,
2013-07-29 08:38:00,57.6,53.8,30.03,SSW,198,0.0,5.0,87,0.00,,,0.00,Wunderground v.1.15,2013-07-29 12:38:00,
2013-07-29 08:44:00,57.7,54.2,30.03,SW,225,0.0,5.0,88,0.00,,,0.00,Wunderground v.1.15,2013-07-29 12:44:00,
2013-07-29 08:50:00,57.7,53.9,30.03,SW,218,0.0,5.0,87,0.00,,,0.00,Wunderground v.1.15,2013-07-29 12:50:00,
2013-07-29 08:55:00,57.6,53.8,30.03,SE,124,0.0,5.0,87,0.00,,,0.00,Wunderground v.1.15,2013-07-29 12:55:00,
2013-07-29 09:00:00,57.7,53.9,30.03,SW,221,0.0,5.0,87,0.00,,,0.00,Wunderground v.1.15,2013-07-29 13:00:00,
2013-07-29 09:06:00,57.7,53.9,30.03,SW,221,0.0,5.0,87,0.00,,,0.00,Wunderground v.1.15,2013-07-29 13:06:00,
2013-07-29 09:12:00,57.7,53.9,30.04,SW,218,0.0,5.0,87,0.00,,,0.00,Wunderground v.1.15,2013-07-29 13:12:00,
2013-07-29 09:18:00,57.9,54.4,30.04,SW,221,0.0,5.0,88,0.00,,,0.00,Wunderground v.1.15,2013-07-29 13:18:00,
2013-07-29 09:23:00,57.9,54.1,30.04,SW,226,0.0,5.0,87,0.00,,,0.00,Wunderground v.1.15,2013-07-29 13:23:00,
2013-07-29 09:28:00,58.0,53.8,30.04,SW,215,0.0,5.0,86,0.00,,,0.00,Wunderground v.1.15,2013-07-29 13:28:00,
2013-07-29 09:33:00,58.2,54.3,30.04,SSE,148,0.0,5.0,87,0.00,,,0.00,Wunderground v.1.15,2013-07-29 13:33:00,
2013-07-29 09:39:00,58.2,53.7,30.04,East,86,1.0,5.0,85,0.00,,,0.00,Wunderground v.1.15,2013-07-29 13:39:00,
2013-07-29 09:45:00,58.6,54.1,30.04,SW,226,1.0,5.0,85,0.00,,,0.00,Wunderground v.1.15,2013-07-29 13:45:00,
2013-07-29 09:50:00,58.7,53.9,30.05,SW,229,0.0,5.0,84,0.00,,,0.00,Wunderground v.1.15,2013-07-29 13:50:00,
2013-07-29 09:57:00,59.0,54.2,30.05,SW,223,1.0,5.0,84,0.00,,,0.00,Wunderground v.1.15,2013-07-29 13:57:00,
2013-07-29 10:03:00,59.2,54.4,30.04,West,272,0.0,5.0,84,0.00,,,0.00,Wunderground v.1.15,2013-07-29 14:03:00,
2013-07-29 10:08:00,59.5,54.3,30.04,SW,224,0.0,5.0,83,0.00,,,0.00,Wunderground v.1.15,2013-07-29 14:08:00,
2013-07-29 10:13:00,59.8,54.6,30.04,SW,221,0.0,5.0,83,0.00,,,0.00,Wunderground v.1.15,2013-07-29 14:13:00,
2013-07-29 10:18:00,60.1,54.9,30.05,SSW,205,0.0,5.0,83,0.00,,,0.00,Wunderground v.1.15,2013-07-29 14:18:00,
2013-07-29 10:24:00,60.7,54.8,30.04,SW,215,1.0,5.0,81,0.00,,,0.00,Wunderground v.1.15,2013-07-29 14:24:00,
2013-07-29 10:29:00,61.7,55.5,30.04,SW,218,1.0,5.0,80,0.00,,,0.00,Wunderground v.1.15,2013-07-29 14:29:00,
2013-07-29 10:34:00,62.6,56.0,30.04,SW,233,1.0,5.0,79,0.00,,,0.00,Wunderground v.1.15,2013-07-29 14:34:00,
2013-07-29 10:39:00,63.3,54.5,30.04,SW,226,2.0,5.0,73,0.00,,,0.00,Wunderground v.1.15,2013-07-29 14:39:00,
2013-07-29 10:45:00,64.7,56.6,30.04,SSW,205,2.0,5.0,75,0.00,,,0.00,Wunderground v.1.15,2013-07-29 14:45:00,
2013-07-29 10:50:00,65.5,55.5,30.04,SW,233,1.0,5.0,70,0.00,,,0.00,Wunderground v.1.15,2013-07-29 14:50:00,
2013-07-29 10:56:00,65.9,56.2,30.04,WNW,288,2.0,5.0,71,0.00,,,0.00,Wunderground v.1.15,2013-07-29 14:56:00,
2013-07-29 11:01:00,66.2,56.1,30.04,NW,316,1.0,5.0,70,0.00,,,0.00,Wunderground v.1.15,2013-07-29 15:01:00,
2013-07-29 11:07:00,66.2,54.9,30.04,SW,224,1.0,5.0,67,0.00,,,0.00,Wunderground v.1.15,2013-07-29 15:07:00,
2013-07-29 11:12:00,65.9,54.6,30.04,SW,235,2.0,5.0,67,0.00,,,0.00,Wunderground v.1.15,2013-07-29 15:12:00,
2013-07-29 11:17:00,65.4,54.2,30.04,WSW,242,2.0,5.0,67,0.00,,,0.00,Wunderground v.1.15,2013-07-29 15:17:00,
2013-07-29 11:22:00,65.2,54.8,30.04,West,259,1.0,5.0,69,0.00,,,0.00,Wunderground v.1.15,2013-07-29 15:22:00,
2013-07-29 11:27:00,65.5,54.7,30.04,WNW,293,2.0,5.0,68,0.00,,,0.00,Wunderground v.1.15,2013-07-29 15:27:00,
2013-07-29 11:33:00,66.6,54.0,30.04,SW,219,1.0,5.0,64,0.00,,,0.00,Wunderground v.1.15,2013-07-29 15:33:00,
2013-07-29 11:38:00,67.4,54.8,30.05,SW,217,1.0,5.0,64,0.00,,,0.00,Wunderground v.1.15,2013-07-29 15:38:00,
2013-07-29 11:43:00,67.2,53.7,30.05,SE,140,2.0,5.0,62,0.00,,,0.00,Wunderground v.1.15,2013-07-29 15:43:00,
2013-07-29 11:48:00,67.0,54.4,30.05,SW,214,2.0,5.0,64,0.00,,,0.00,Wunderground v.1.15,2013-07-29 15:48:00,
2013-07-29 11:53:00,67.0,54.4,30.05,WSW,248,2.0,5.0,64,0.00,,,0.00,Wunderground v.1.15,2013-07-29 15:53:00,
2013-07-29 11:59:00,67.5,54.9,30.05,West,264,2.0,5.0,64,0.00,,,0.00,Wunderground v.1.15,2013-07-29 15:59:00,
2013-07-29 12:05:00,67.4,54.4,30.05,SW,218,2.0,5.0,63,0.00,,,0.00,Wunderground v.1.15,2013-07-29 16:05:00,
2013-07-29 12:10:00,67.1,54.1,30.05,SW,232,2.0,2.0,63,0.00,,,0.00,Wunderground v.1.15,2013-07-29 16:10:00,
2013-07-29 12:15:00,67.8,54.7,30.05,SW,235,1.0,5.0,63,0.00,,,0.00,Wunderground v.1.15,2013-07-29 16:15:00,
2013-07-29 12:20:00,68.5,54.1,30.05,SW,234,2.0,5.0,60,0.00,,,0.00,Wunderground v.1.15,2013-07-29 16:20:00,
2013-07-29 12:25:00,68.9,54.9,30.05,WSW,239,3.0,5.0,61,0.00,,,0.00,Wunderground v.1.15,2013-07-29 16:25:00,
2013-07-29 12:31:00,68.9,54.4,30.04,West,261,3.0,5.0,60,0.00,,,0.00,Wunderground v.1.15,2013-07-29 16:31:00,
2013-07-29 12:37:00,69.2,54.7,30.05,West,273,2.0,5.0,60,0.00,,,0.00,Wunderground v.1.15,2013-07-29 16:37:00,
2013-07-29 12:42:00,68.6,54.6,30.05,West,267,1.0,5.0,61,0.00,,,0.00,Wunderground v.1.15,2013-07-29 16:42:00,
2013-07-29 12:47:00,68.8,53.9,30.05,SW,218,2.0,5.0,59,0.00,,,0.00,Wunderground v.1.15,2013-07-29 16:47:00,
2013-07-29 12:52:00,69.6,55.1,30.05,SW,234,2.0,5.0,60,0.00,,,0.00,Wunderground v.1.15,2013-07-29 16:52:00,
2013-07-29 12:57:00,69.5,54.5,30.05,West,260,2.0,5.0,59,0.00,,,0.00,Wunderground v.1.15,2013-07-29 16:57:00,
2013-07-29 13:03:00,68.6,54.2,30.05,WSW,240,2.0,5.0,60,0.00,,,0.00,Wunderground v.1.15,2013-07-29 17:03:00,
2013-07-29 13:08:00,69.4,54.4,30.05,WNW,294,1.0,5.0,59,0.00,,,0.00,Wunderground v.1.15,2013-07-29 17:08:00,
2013-07-29 13:13:00,69.2,54.3,30.06,SSW,205,1.0,8.0,59,0.00,,,0.00,Wunderground v.1.15,2013-07-29 17:13:00,
2013-07-29 13:19:00,68.5,54.5,30.06,SSW,207,3.0,8.0,61,0.00,,,0.00,Wunderground v.1.15,2013-07-29 17:19:00,
2013-07-29 13:25:00,68.8,53.9,30.06,West,266,3.0,6.0,59,0.00,,,0.00,Wunderground v.1.15,2013-07-29 17:25:00,
2013-07-29 13:31:00,69.3,53.4,30.06,WNW,284,3.0,5.0,57,0.00,,,0.00,Wunderground v.1.15,2013-07-29 17:31:00,
2013-07-29 13:38:00,68.3,52.9,30.06,WSW,240,3.0,5.0,58,0.00,,,0.00,Wunderground v.1.15,2013-07-29 17:38:00,
2013-07-29 13:43:00,68.5,54.5,30.06,NW,326,2.0,5.0,61,0.00,,,0.00,Wunderground v.1.15,2013-07-29 17:43:00,
2013-07-29 13:49:00,70.0,53.6,30.06,SW,232,1.0,6.0,56,0.00,,,0.00,Wunderground v.1.15,2013-07-29 17:49:00,
2013-07-29 13:55:00,70.6,53.6,30.06,SW,236,2.0,6.0,55,0.00,,,0.00,Wunderground v.1.15,2013-07-29 17:55:00,
2013-07-29 14:00:00,70.3,54.3,30.06,SSW,211,2.0,2.0,57,0.00,,,0.00,Wunderground v.1.15,2013-07-29 18:00:00,
2013-07-29 14:05:00,70.2,53.8,30.06,NNW,337,2.0,5.0,56,0.00,,,0.00,Wunderground v.1.15,2013-07-29 18:05:00,
2013-07-29 14:10:00,70.7,53.7,30.06,SW,219,2.0,5.0,55,0.00,,,0.00,Wunderground v.1.15,2013-07-29 18:10:00,
2013-07-29 14:15:00,70.9,52.9,30.06,SW,218,2.0,5.0,53,0.00,,,0.00,Wunderground v.1.15,2013-07-29 18:15:00,
2013-07-29 14:21:00,71.1,54.1,30.06,SW,218,2.0,5.0,55,0.00,,,0.00,Wunderground v.1.15,2013-07-29 18:21:00,
2013-07-29 14:26:00,71.7,55.2,30.06,East,95,2.0,5.0,56,0.00,,,0.00,Wunderground v.1.15,2013-07-29 18:26:00,
2013-07-29 14:31:00,72.0,55.4,30.06,SW,214,2.0,5.0,56,0.00,,,0.00,Wunderground v.1.15,2013-07-29 18:31:00,
2013-07-29 14:36:00,71.2,53.7,30.07,WSW,245,2.0,5.0,54,0.00,,,0.00,Wunderground v.1.15,2013-07-29 18:36:00,
2013-07-29 14:41:00,70.3,53.4,30.07,WSW,253,2.0,5.0,55,0.00,,,0.00,Wunderground v.1.15,2013-07-29 18:41:00,
2013-07-29 14:47:00,69.3,52.4,30.07,SW,221,2.0,5.0,55,0.00,,,0.00,Wunderground v.1.15,2013-07-29 18:47:00,
2013-07-29 14:52:00,68.6,53.7,30.07,West,278,2.0,5.0,59,0.00,,,0.00,Wunderground v.1.15,2013-07-29 18:52:00,
2013-07-29 14:57:00,68.0,53.6,30.07,WNW,292,1.0,5.0,60,0.00,,,0.00,Wunderground v.1.15,2013-07-29 18:57:00,
2013-07-29 15:03:00,67.3,53.8,30.07,West,276,1.0,5.0,62,0.00,,,0.00,Wunderground v.1.15,2013-07-29 19:03:00,
2013-07-29 15:08:00,67.1,54.5,30.07,WSW,246,1.0,5.0,64,0.00,,,0.00,Wunderground v.1.15,2013-07-29 19:08:00,
2013-07-29 15:13:00,67.0,54.4,30.07,SW,229,1.0,5.0,64,0.00,,,0.00,Wunderground v.1.15,2013-07-29 19:13:00,
2013-07-29 15:18:00,67.1,54.5,30.07,WSW,253,1.0,5.0,64,0.00,,,0.00,Wunderground v.1.15,2013-07-29 19:18:00,
2013-07-29 15:23:00,67.2,54.2,30.07,SW,218,1.0,5.0,63,0.00,,,0.00,Wunderground v.1.15,2013-07-29 19:23:00,
2013-07-29 15:28:00,67.2,54.6,30.08,SSW,212,1.0,5.0,64,0.00,,,0.00,Wunderground v.1.15,2013-07-29 19:28:00,
2013-07-29 15:34:00,67.2,55.5,30.08,West,281,1.0,5.0,66,0.00,,,0.00,Wunderground v.1.15,2013-07-29 19:34:00,
2013-07-29 15:40:00,66.9,53.9,30.08,SSW,203,2.0,5.0,63,0.00,,,0.00,Wunderground v.1.15,2013-07-29 19:40:00,
2013-07-29 15:46:00,67.0,55.3,30.08,SW,222,2.0,5.0,66,0.00,,,0.00,Wunderground v.1.15,2013-07-29 19:46:00,
2013-07-29 15:51:00,67.1,54.9,30.08,West,259,2.0,5.0,65,0.00,,,0.00,Wunderground v.1.15,2013-07-29 19:51:00,
2013-07-29 15:57:00,67.3,56.0,30.08,West,277,1.0,5.0,67,0.00,,,0.00,Wunderground v.1.15,2013-07-29 19:57:00,
2013-07-29 16:02:00,67.3,55.5,30.08,SW,229,1.0,5.0,66,0.00,,,0.00,Wunderground v.1.15,2013-07-29 20:02:00,
2013-07-29 16:07:00,67.3,55.5,30.08,SSE,152,2.0,5.0,66,0.00,,,0.00,Wunderground v.1.15,2013-07-29 20:07:00,
2013-07-29 16:12:00,67.5,55.3,30.08,SW,218,2.0,5.0,65,0.00,,,0.00,Wunderground v.1.15,2013-07-29 20:12:00,
2013-07-29 16:17:00,67.6,55.8,30.08,WSW,250,1.0,5.0,66,0.00,,,0.00,Wunderground v.1.15,2013-07-29 20:17:00,
2013-07-29 16:22:00,67.6,55.8,30.08,SW,236,1.0,5.0,66,0.00,,,0.00,Wunderground v.1.15,2013-07-29 20:22:00,
2013-07-29 16:27:00,67.6,55.4,30.08,SW,232,1.0,5.0,65,0.00,,,0.00,Wunderground v.1.15,2013-07-29 20:27:00,
2013-07-29 16:32:00,68.0,55.8,30.09,WSW,239,1.0,5.0,65,0.00,,,0.00,Wunderground v.1.15,2013-07-29 20:32:00,
2013-07-29 16:37:00,67.9,55.7,30.09,SW,226,1.0,5.0,65,0.00,,,0.00,Wunderground v.1.15,2013-07-29 20:37:00,
2013-07-29 16:42:00,68.0,56.2,30.09,SSE,158,1.0,5.0,66,0.00,,,0.00,Wunderground v.1.15,2013-07-29 20:42:00,
2013-07-29 16:47:00,67.9,55.7,30.09,SW,219,1.0,5.0,65,0.00,,,0.00,Wunderground v.1.15,2013-07-29 20:47:00,
2013-07-29 16:52:00,67.1,55.8,30.09,WNW,294,2.0,5.0,67,0.00,,,0.00,Wunderground v.1.15,2013-07-29 20:52:00,
2013-07-29 16:58:00,66.7,56.2,30.09,SW,233,2.0,5.0,69,0.00,,,0.00,Wunderground v.1.15,2013-07-29 20:58:00,
2013-07-29 17:04:00,66.6,56.5,30.09,South,176,1.0,5.0,70,0.00,,,0.00,Wunderground v.1.15,2013-07-29 21:04:00,
2013-07-29 17:10:00,66.4,56.7,30.09,SSW,197,1.0,1.0,71,0.00,,,0.00,Wunderground v.1.15,2013-07-29 21:10:00,
2013-07-29 17:16:00,66.3,56.2,30.09,WSW,239,0.0,5.0,70,0.00,,,0.00,Wunderground v.1.15,2013-07-29 21:16:00,
2013-07-29 17:22:00,66.2,56.1,30.09,SW,229,1.0,5.0,70,0.00,,,0.00,Wunderground v.1.15,2013-07-29 21:22:00,
2013-07-29 17:27:00,66.1,56.0,30.09,SW,228,1.0,5.0,70,0.00,,,0.00,Wunderground v.1.15,2013-07-29 21:27:00,
2013-07-29 17:33:00,66.0,56.3,30.10,SW,236,1.0,5.0,71,0.00,,,0.00,Wunderground v.1.15,2013-07-29 21:33:00,
2013-07-29 17:38:00,66.0,55.9,30.10,SW,233,1.0,5.0,70,0.00,,,0.00,Wunderground v.1.15,2013-07-29 21:38:00,
2013-07-29 17:43:00,65.9,56.2,30.10,West,269,1.0,5.0,71,0.00,,,0.00,Wunderground v.1.15,2013-07-29 21:43:00,
2013-07-29 17:48:00,65.7,56.0,30.10,West,281,1.0,5.0,71,0.00,,,0.00,Wunderground v.1.15,2013-07-29 21:48:00,
2013-07-29 17:54:00,65.3,56.0,30.10,SSW,210,1.0,5.0,72,0.00,,,0.00,Wunderground v.1.15,2013-07-29 21:54:00,
2013-07-29 17:59:00,65.0,55.8,30.10,WSW,238,1.0,5.0,72,0.00,,,0.00,Wunderground v.1.15,2013-07-29 21:59:00,
2013-07-29 18:05:00,64.6,55.7,30.10,West,269,1.0,5.0,73,0.00,,,0.00,Wunderground v.1.15,2013-07-29 22:05:00,
2013-07-29 18:10:00,64.5,56.0,30.10,SW,236,1.0,1.0,74,0.00,,,0.00,Wunderground v.1.15,2013-07-29 22:10:00,
2013-07-29 18:15:00,64.4,56.3,30.10,WSW,237,0.0,5.0,75,0.00,,,0.00,Wunderground v.1.15,2013-07-29 22:15:00,
2013-07-29 18:20:00,64.3,55.8,30.11,WSW,238,0.0,5.0,74,0.00,,,0.00,Wunderground v.1.15,2013-07-29 22:20:00,
2013-07-29 18:25:00,64.4,56.3,30.10,WSW,245,0.0,5.0,75,0.00,,,0.00,Wunderground v.1.15,2013-07-29 22:25:00,
2013-07-29 18:31:00,64.4,55.9,30.10,SW,235,0.0,5.0,74,0.00,,,0.00,Wunderground v.1.15,2013-07-29 22:31:00,
2013-07-29 18:36:00,64.5,56.0,30.10,SW,224,0.0,5.0,74,0.00,,,0.00,Wunderground v.1.15,2013-07-29 22:36:00,
2013-07-29 18:42:00,64.6,56.5,30.10,SW,232,0.0,5.0,75,0.00,,,0.00,Wunderground v.1.15,2013-07-29 22:42:00,
2013-07-29 18:47:00,64.5,56.0,30.10,SSW,208,1.0,5.0,74,0.00,,,0.00,Wunderground v.1.15,2013-07-29 22:47:00,
2013-07-29 18:52:00,64.5,56.4,30.10,SSW,208,1.0,5.0,75,0.00,,,0.00,Wunderground v.1.15,2013-07-29 22:52:00,
2013-07-29 18:57:00,64.5,56.4,30.10,WSW,249,0.0,5.0,75,0.00,,,0.00,Wunderground v.1.15,2013-07-29 22:57:00,
2013-07-29 19:02:00,64.5,55.7,30.10,SW,221,1.0,5.0,73,0.00,,,0.00,Wunderground v.1.15,2013-07-29 23:02:00,
2013-07-29 19:08:00,64.6,56.1,30.10,SW,218,1.0,5.0,74,0.00,,,0.00,Wunderground v.1.15,2013-07-29 23:08:00,
2013-07-29 19:14:00,64.6,56.1,30.10,SSW,205,1.0,5.0,74,0.00,,,0.00,Wunderground v.1.15,2013-07-29 23:14:00,
2013-07-29 19:19:00,64.9,57.2,30.10,SSW,205,1.0,5.0,76,0.00,,,0.00,Wunderground v.1.15,2013-07-29 23:19:00,
2013-07-29 19:24:00,65.0,56.9,30.11,SSE,166,1.0,5.0,75,0.00,,,0.00,Wunderground v.1.15,2013-07-29 23:24:00,
2013-07-29 19:30:00,65.1,56.6,30.11,SW,229,1.0,1.0,74,0.00,,,0.00,Wunderground v.1.15,2013-07-29 23:30:00,
2013-07-29 19:35:00,65.0,56.5,30.11,East,94,1.0,5.0,74,0.00,,,0.00,Wunderground v.1.15,2013-07-29 23:35:00,
2013-07-29 19:40:00,64.7,57.0,30.11,SW,229,0.0,5.0,76,0.00,,,0.00,Wunderground v.1.15,2013-07-29 23:40:00,
2013-07-29 19:47:00,64.1,56.4,30.11,SW,233,0.0,5.0,76,0.00,,,0.00,Wunderground v.1.15,2013-07-29 23:47:00,
2013-07-29 19:52:00,63.9,56.5,30.11,SW,232,1.0,5.0,77,0.00,,,0.00,Wunderground v.1.15,2013-07-29 23:52:00,
2013-07-29 19:58:00,63.8,57.5,30.11,SW,233,0.0,5.0,80,0.00,,,0.00,Wunderground v.1.15,2013-07-29 23:58:00,
2013-07-29 20:03:00,63.6,57.3,30.11,SW,233,0.0,5.0,80,0.00,,,0.00,Wunderground v.1.15,2013-07-30 00:03:00,
2013-07-29 20:09:00,63.3,56.7,30.12,SW,233,0.0,5.0,79,0.00,,,0.00,Wunderground v.1.15,2013-07-30 00:09:00,
2013-07-29 20:14:00,63.1,57.2,30.12,SW,233,0.0,5.0,81,0.00,,,0.00,Wunderground v.1.15,2013-07-30 00:14:00,
2013-07-29 20:20:00,62.8,57.2,30.12,SW,233,0.0,5.0,82,0.00,,,0.00,Wunderground v.1.15,2013-07-30 00:20:00,
2013-07-29 20:25:00,62.6,57.4,30.12,SW,233,0.0,5.0,83,0.00,,,0.00,Wunderground v.1.15,2013-07-30 00:25:00,
2013-07-29 20:30:00,62.4,57.2,30.12,SW,232,0.0,5.0,83,0.00,,,0.00,Wunderground v.1.15,2013-07-30 00:30:00,
2013-07-29 20:35:00,62.2,57.0,30.12,SSW,199,0.0,5.0,83,0.00,,,0.00,Wunderground v.1.15,2013-07-30 00:35:00,
2013-07-29 20:41:00,62.1,57.2,30.12,SSW,198,0.0,5.0,84,0.00,,,0.00,Wunderground v.1.15,2013-07-30 00:41:00,
2013-07-29 20:47:00,62.1,57.5,30.12,SSW,198,0.0,5.0,85,0.00,,,0.00,Wunderground v.1.15,2013-07-30 00:47:00,
2013-07-29 20:52:00,62.0,57.4,30.12,SSW,198,0.0,5.0,85,0.00,,,0.00,Wunderground v.1.15,2013-07-30 00:52:00,
2013-07-29 20:57:00,62.0,57.4,30.13,SSW,198,0.0,5.0,85,0.00,,,0.00,Wunderground v.1.15,2013-07-30 00:57:00,
2013-07-29 21:03:00,61.8,57.2,30.13,SSW,198,0.0,5.0,85,0.00,,,0.00,Wunderground v.1.15,2013-07-30 01:03:00,
2013-07-29 21:09:00,61.6,57.0,30.13,SSW,198,0.0,5.0,85,0.00,,,0.00,Wunderground v.1.15,2013-07-30 01:09:00,
2013-07-29 21:15:00,61.4,56.8,30.13,SSW,198,0.0,5.0,85,0.00,,,0.00,Wunderground v.1.15,2013-07-30 01:15:00,
2013-07-29 21:20:00,61.3,57.1,30.13,SSW,198,0.0,5.0,86,0.00,,,0.00,Wunderground v.1.15,2013-07-30 01:20:00,
2013-07-29 21:26:00,61.1,57.2,30.13,SSW,198,0.0,5.0,87,0.00,,,0.00,Wunderground v.1.15,2013-07-30 01:26:00,
2013-07-29 21:31:00,60.9,57.0,30.14,SSW,198,0.0,5.0,87,0.00,,,0.00,Wunderground v.1.15,2013-07-30 01:31:00,
2013-07-29 21:36:00,60.4,56.5,30.14,SSW,198,0.0,5.0,87,0.00,,,0.00,Wunderground v.1.15,2013-07-30 01:36:00,
2013-07-29 21:41:00,59.9,56.3,30.14,SSW,198,0.0,5.0,88,0.00,,,0.00,Wunderground v.1.15,2013-07-30 01:41:00,
2013-07-29 21:47:00,59.7,56.5,30.14,SSW,198,0.0,5.0,89,0.00,,,0.00,Wunderground v.1.15,2013-07-30 01:47:00,
2013-07-29 21:52:00,59.3,56.4,30.14,SSW,198,0.0,5.0,90,0.00,,,0.00,Wunderground v.1.15,2013-07-30 01:52:00,
2013-07-29 21:57:00,58.9,56.0,30.14,SSW,198,0.0,5.0,90,0.00,,,0.00,Wunderground v.1.15,2013-07-30 01:57:00,
2013-07-29 22:03:00,58.5,55.9,30.14,SSW,198,0.0,5.0,91,0.00,,,0.00,Wunderground v.1.15,2013-07-30 02:03:00,
2013-07-29 22:08:00,58.2,55.9,30.14,SSW,198,0.0,5.0,92,0.00,,,0.00,Wunderground v.1.15,2013-07-30 02:08:00,
2013-07-29 22:14:00,57.9,55.6,30.14,SSW,198,0.0,5.0,92,0.00,,,0.00,Wunderground v.1.15,2013-07-30 02:14:00,
2013-07-29 22:20:00,57.6,55.6,30.15,SSW,198,0.0,5.0,93,0.00,,,0.00,Wunderground v.1.15,2013-07-30 02:20:00,
2013-07-29 22:28:00,57.3,55.3,30.15,SSW,198,0.0,5.0,93,0.00,,,0.00,Wunderground v.1.15,2013-07-30 02:28:00,
2013-07-29 22:33:00,57.1,55.1,30.15,SSW,198,0.0,5.0,93,0.00,,,0.00,Wunderground v.1.15,2013-07-30 02:33:00,
2013-07-29 22:39:00,56.9,55.2,30.15,SSW,198,0.0,5.0,94,0.00,,,0.00,Wunderground v.1.15,2013-07-30 02:39:00,
2013-07-29 22:45:00,56.8,55.1,30.15,SSW,198,0.0,5.0,94,0.00,,,0.00,Wunderground v.1.15,2013-07-30 02:45:00,
2013-07-29 22:50:00,56.6,54.9,30.16,SSW,198,0.0,5.0,94,0.00,,,0.00,Wunderground v.1.15,2013-07-30 02:50:00,
2013-07-29 22:55:00,56.5,54.8,30.16,SSW,198,0.0,5.0,94,0.00,,,0.00,Wunderground v.1.15,2013-07-30 02:55:00,
2013-07-29 23:01:00,56.3,54.6,30.15,SSW,199,0.0,5.0,94,0.00,,,0.00,Wunderground v.1.15,2013-07-30 03:01:00,
2013-07-29 23:06:00,56.2,54.8,30.16,SSW,198,0.0,5.0,95,0.00,,,0.00,Wunderground v.1.15,2013-07-30 03:06:00,
2013-07-29 23:11:00,56.2,54.8,30.15,SSW,198,0.0,5.0,95,0.00,,,0.00,Wunderground v.1.15,2013-07-30 03:11:00,
2013-07-29 23:16:00,56.3,54.9,30.16,SSW,198,0.0,5.0,95,0.00,,,0.00,Wunderground v.1.15,2013-07-30 03:16:00,
2013-07-29 23:21:00,56.2,54.8,30.15,SSW,198,0.0,5.0,95,0.00,,,0.00,Wunderground v.1.15,2013-07-30 03:21:00,
2013-07-29 23:27:00,56.2,54.8,30.16,South,176,0.0,5.0,95,0.00,,,0.00,Wunderground v.1.15,2013-07-30 03:27:00,
2013-07-29 23:32:00,56.2,55.1,30.16,South,176,0.0,5.0,96,0.00,,,0.00,Wunderground v.1.15,2013-07-30 03:32:00,
2013-07-29 23:37:00,56.2,55.1,30.15,South,176,0.0,5.0,96,0.00,,,0.00,Wunderground v.1.15,2013-07-30 03:37:00,
2013-07-29 23:42:00,56.2,55.1,30.16,South,176,0.0,5.0,96,0.00,,,0.00,Wunderground v.1.15,2013-07-30 03:42:00,
2013-07-29 23:54:00,56.1,55.0,30.16,South,176,0.0,5.0,96,0.00,,,0.00,Wunderground v.1.15,2013-07-30 03:54:00,
2013-07-29 23:59:00,56.0,54.9,30.16,South,176,0.0,5.0,96,0.00,,,0.00,Wunderground v.1.15,2013-07-30 03:59:00,